Time;durP1;ratioP1;P1;durP2;ratioP2;P2;SDS_P1;SDS_P2;PMS_P1;PMS_P2;Temp;Humidity;BMP_temperature;BMP_pressure;BME280_temperature;BME280_humidity;BME280_pressure;Samples;Min_cycle;Max_cycle;Signal;HPM_P1;HPM_P2
2022/05/01 00:01:20;;;;;;;0.70;0.70;;;;;;;-1.19;68.30;100007.09;4896906;29;20056;-81
2022/05/01 00:03:48;;;;;;;0.60;0.60;;;;;;;-1.29;68.96;100006.28;4897004;29;20056;-81
2022/05/01 00:06:15;;;;;;;0.88;0.88;;;;;;;-1.33;69.49;100007.53;4896748;29;20108;-80
2022/05/01 00:08:43;;;;;;;0.60;0.60;;;;;;;-1.36;69.81;100003.38;4895744;29;20052;-81
2022/05/01 00:11:10;;;;;;;0.80;0.80;;;;;;;-1.40;69.59;100007.28;4896778;29;20054;-81
2022/05/01 00:13:44;;;;;;;0.85;0.85;;;;;;;-1.36;69.30;100016.63;4896994;29;20100;-81
2022/05/01 00:16:12;;;;;;;0.70;0.70;;;;;;;-1.12;67.55;100021.41;4896894;29;20065;-81
2022/05/01 00:18:40;;;;;;;0.65;0.65;;;;;;;-0.95;66.21;100008.41;4896713;29;20052;-82
2022/05/01 00:21:07;;;;;;;0.65;0.65;;;;;;;-0.66;64.58;100011.75;4896399;29;20087;-82
2022/05/01 00:23:34;;;;;;;0.80;0.80;;;;;;;-0.71;64.59;100005.19;4896500;29;20056;-82
2022/05/01 00:26:04;;;;;;;0.60;0.60;;;;;;;-0.77;65.33;100006.63;4896424;29;20051;-82
2022/05/01 00:28:36;;;;;;;0.80;0.80;;;;;;;-0.87;66.27;100003.19;4897126;29;20108;-82
2022/05/01 00:31:05;;;;;;;0.60;0.60;;;;;;;-1.00;66.87;100014.13;4897228;29;20068;-81
2022/05/01 00:36:25;;;;;;;0.75;0.75;;;;;;;-1.29;67.90;100006.28;4896325;29;20100;-81
2022/05/01 00:39:06;;;;;;;0.65;0.65;;;;;;;-1.42;69.01;100003.94;4905055;29;20052;-81
2022/05/01 00:41:35;;;;;;;0.70;0.70;;;;;;;-1.55;69.66;100006.06;4915279;29;20143;-80
2022/05/01 00:44:06;;;;;;;0.60;0.60;;;;;;;-1.61;69.95;100002.16;4915026;29;20095;-81
2022/05/01 00:46:45;;;;;;;0.65;0.65;;;;;;;-1.68;70.65;100010.81;4915078;29;20082;-81
2022/05/01 00:49:17;;;;;;;0.73;0.73;;;;;;;-1.78;71.06;100003.69;4900178;29;20071;-81
2022/05/01 00:51:51;;;;;;;0.70;0.70;;;;;;;-1.78;71.36;100009.00;4919083;29;20147;-81
2022/05/01 00:54:22;;;;;;;0.73;0.73;;;;;;;-1.81;71.33;100011.94;4901954;29;20052;-81
2022/05/01 00:56:52;;;;;;;0.60;0.60;;;;;;;-1.76;71.28;100014.16;4901126;29;20059;-81
2022/05/01 00:59:21;;;;;;;0.80;0.80;;;;;;;-1.81;71.14;100011.94;4918875;29;20074;-81
2022/05/01 01:01:50;;;;;;;0.70;0.70;;;;;;;-1.78;71.26;100018.75;4919628;29;20064;-81
2022/05/01 01:04:19;;;;;;;0.70;0.70;;;;;;;-1.81;71.13;100022.53;4920133;29;20075;-82
2022/05/01 01:06:46;;;;;;;0.80;0.80;;;;;;;-1.76;71.04;100022.94;4905289;29;20051;-82
2022/05/01 01:09:13;;;;;;;0.70;0.70;;;;;;;-1.74;71.16;100020.16;4920414;29;20051;-82
2022/05/01 01:11:42;;;;;;;0.70;0.70;;;;;;;-1.78;71.28;100024.88;4901655;29;20574;-81
2022/05/01 01:14:10;;;;;;;0.57;0.57;;;;;;;-1.77;71.19;100021.28;4918365;29;20056;-81
2022/05/01 01:16:38;;;;;;;0.50;0.50;;;;;;;-1.75;70.57;100024.63;4919046;29;20044;-81
2022/05/01 01:19:08;;;;;;;0.63;0.63;;;;;;;-1.76;71.05;100024.75;4917129;29;20054;-81
2022/05/01 01:21:35;;;;;;;0.45;0.45;;;;;;;-1.86;71.46;100018.63;4918487;29;20404;-81
2022/05/01 01:24:06;;;;;;;0.70;0.70;;;;;;;-1.92;71.43;100022.66;4918157;29;20129;-80
2022/05/01 01:26:36;;;;;;;0.70;0.70;;;;;;;-1.84;71.10;100020.16;4918422;29;20527;-81
2022/05/01 01:31:40;;;;;;;0.63;0.63;;;;;;;-1.84;71.04;100019.34;4902208;29;20059;-80
2022/05/01 01:31:54;;;;;;;0.70;0.70;;;;;;;-1.64;70.19;100017.50;4901203;29;20100;-81
2022/05/01 01:34:23;;;;;;;0.70;0.70;;;;;;;-1.39;68.82;100019.56;4901465;29;20116;-81
2022/05/01 01:36:51;;;;;;;0.80;0.80;;;;;;;-1.22;67.63;100017.97;4918323;29;20490;-81
2022/05/01 01:39:18;;;;;;;0.60;0.60;;;;;;;-0.89;65.36;100011.31;4901374;29;20062;-81
2022/05/01 01:41:47;;;;;;;0.68;0.68;;;;;;;-0.54;63.13;100007.06;4901305;29;20044;-81
2022/05/01 01:44:14;;;;;;;0.60;0.60;;;;;;;-0.39;62.41;100002.09;4901243;29;20064;-81
2022/05/01 01:46:42;;;;;;;0.70;0.70;;;;;;;-0.36;61.88;100007.09;4901349;29;20060;-82
2022/05/01 01:49:10;;;;;;;0.80;0.80;;;;;;;-0.33;61.54;100011.28;4917739;29;20055;-81
2022/05/01 01:51:37;;;;;;;0.60;0.60;;;;;;;-0.35;61.54;100007.97;4918228;29;20139;-80
2022/05/01 01:54:06;;;;;;;0.73;0.73;;;;;;;-0.27;61.23;100010.69;4917662;29;20056;-82
2022/05/01 01:56:37;;;;;;;0.70;0.70;;;;;;;-0.41;61.69;100012.00;4900923;29;20048;-81
2022/05/01 01:59:04;;;;;;;0.90;0.90;;;;;;;-0.42;61.56;100007.72;4918382;29;20515;-84
2022/05/01 02:01:32;;;;;;;0.80;0.80;;;;;;;-0.38;61.52;100011.75;4917067;29;20048;-81
2022/05/01 02:04:00;;;;;;;0.70;0.70;;;;;;;-0.31;61.05;100011.97;4917846;29;20559;-81
2022/05/01 02:06:27;;;;;;;0.90;0.90;;;;;;;-0.31;60.82;100009.31;4917706;29;20500;-81
2022/05/01 02:08:54;;;;;;;0.60;0.60;;;;;;;-0.35;60.83;100019.41;4917673;29;20471;-82
2022/05/01 02:11:22;;;;;;;0.70;0.70;;;;;;;-0.45;61.14;100011.50;4917395;29;20044;-82
2022/05/01 02:13:49;;;;;;;0.50;0.50;;;;;;;-0.46;61.16;100016.94;4900887;29;20059;-81
2022/05/01 02:16:17;;;;;;;0.70;0.70;;;;;;;-0.53;61.50;100016.72;4916159;29;20665;-81
2022/05/01 02:18:44;;;;;;;0.82;0.82;;;;;;;-0.60;61.74;100012.16;4917774;29;20108;-82
2022/05/01 02:24:01;;;;;;;0.90;0.90;;;;;;;-0.36;60.56;100016.88;4876305;29;20578;-81
2022/05/01 02:26:29;;;;;;;0.80;0.80;;;;;;;-0.21;59.74;100018.03;4917631;29;20107;-81
2022/05/01 02:28:59;;;;;;;0.65;0.65;;;;;;;-0.11;59.82;100013.50;4917243;29;20551;-83
2022/05/01 02:31:26;;;;;;;0.80;0.80;;;;;;;-0.07;59.66;100024.66;4900089;29;20130;-81
2022/05/01 02:33:54;;;;;;;0.80;0.80;;;;;;;-0.05;59.62;100020.88;4917436;29;20083;-81
2022/05/01 02:36:21;;;;;;;0.80;0.80;;;;;;;-0.01;59.30;100013.41;4916980;29;20146;-80
2022/05/01 02:38:49;;;;;;;0.70;0.70;;;;;;;-0.02;59.38;100025.88;4917218;29;20075;-81
2022/05/01 02:41:16;;;;;;;0.70;0.70;;;;;;;-0.09;59.77;100027.44;4916732;29;20455;-80
2022/05/01 02:43:43;;;;;;;0.77;0.77;;;;;;;-0.20;60.40;100018.84;4917138;29;20094;-82
2022/05/01 02:46:11;;;;;;;0.77;0.77;;;;;;;-0.22;60.66;100029.66;4916826;29;20104;-81
2022/05/01 02:48:38;;;;;;;0.70;0.70;;;;;;;-0.23;60.62;100020.00;4917055;29;20048;-81
2022/05/01 02:51:06;;;;;;;0.70;0.70;;;;;;;-0.17;60.73;100027.38;4917144;29;20140;-81
2022/05/01 02:53:33;;;;;;;0.90;0.90;;;;;;;-0.11;60.62;100023.28;4916038;29;20075;-81
2022/05/01 02:56:01;;;;;;;0.80;0.80;;;;;;;-0.05;60.30;100022.66;4918351;29;20400;-81
2022/05/01 02:58:29;;;;;;;0.68;0.68;;;;;;;0.01;60.30;100023.91;4917272;29;20051;-81
2022/05/01 03:00:57;;;;;;;0.70;0.70;;;;;;;0.08;60.06;100017.84;4900098;29;20086;-80
2022/05/01 03:03:24;;;;;;;0.80;0.80;;;;;;;0.15;59.99;100023.34;4916556;29;20090;-81
2022/05/01 03:05:52;;;;;;;0.70;0.70;;;;;;;0.16;59.87;100017.91;4899918;29;20078;-80
2022/05/01 03:08:21;;;;;;;0.68;0.68;;;;;;;0.23;59.58;100026.09;4916407;29;20075;-80
2022/05/01 03:10:48;;;;;;;0.77;0.77;;;;;;;0.29;59.60;100030.78;4916114;29;20471;-81
2022/05/01 03:13:17;;;;;;;0.60;0.60;;;;;;;0.29;59.74;100028.13;4916337;29;20052;-81
2022/05/01 03:15:44;;;;;;;0.60;0.60;;;;;;;0.28;59.86;100031.78;4916497;29;20521;-81
2022/05/01 03:23:43;;;;;;;0.70;0.70;;;;;;;0.41;60.03;100028.72;4916858;29;20147;-81
2022/05/01 03:26:11;;;;;;;0.82;0.82;;;;;;;0.45;60.05;100022.09;4899660;29;20052;-81
2022/05/01 03:28:39;;;;;;;0.60;0.60;;;;;;;0.50;59.99;100019.00;4916370;29;20055;-80
2022/05/01 03:31:09;;;;;;;0.70;0.70;;;;;;;0.62;59.67;100023.91;4916295;29;20048;-82
2022/05/01 03:33:37;;;;;;;0.60;0.60;;;;;;;0.71;59.17;100022.16;4916261;29;20209;-81
2022/05/01 03:36:06;;;;;;;0.82;0.82;;;;;;;0.84;58.75;100027.88;4916379;29;20048;-82
2022/05/01 03:38:39;;;;;;;0.80;0.80;;;;;;;0.97;57.95;100029.28;4916399;29;20059;-81
2022/05/01 03:41:08;;;;;;;0.70;0.70;;;;;;;1.16;56.73;100034.34;4899075;29;20051;-80
2022/05/01 03:43:36;;;;;;;0.70;0.70;;;;;;;1.30;56.39;100031.09;4898913;29;20092;-81
2022/05/01 03:46:06;;;;;;;0.80;0.80;;;;;;;1.48;56.18;100027.53;4916136;29;20075;-81
2022/05/01 03:48:34;;;;;;;0.88;0.88;;;;;;;1.61;54.96;100022.56;4915882;29;20185;-80
2022/05/01 03:51:02;;;;;;;0.75;0.75;;;;;;;1.64;55.36;100027.56;4915936;29;20086;-82
2022/05/01 03:53:32;;;;;;;0.90;0.90;;;;;;;1.71;54.86;100033.91;4918589;29;20048;-82
2022/05/01 03:55:59;;;;;;;0.60;0.60;;;;;;;1.76;55.18;100030.75;4918132;29;20135;-81
2022/05/01 03:58:29;;;;;;;0.80;0.80;;;;;;;1.82;55.07;100034.59;4900229;29;20430;-81
2022/05/01 04:00:57;;;;;;;0.85;0.85;;;;;;;1.89;55.26;100033.78;4899694;29;20078;-82
2022/05/01 04:03:25;;;;;;;0.80;0.80;;;;;;;2.00;54.22;100027.34;4916594;29;20052;-82
2022/05/01 04:05:53;;;;;;;0.70;0.70;;;;;;;2.10;54.08;100030.69;4916728;29;20135;-81
2022/05/01 04:08:21;;;;;;;0.70;0.70;;;;;;;2.19;54.27;100025.34;4907702;29;20531;-82
2022/05/01 04:10:49;;;;;;;0.70;0.70;;;;;;;2.25;53.76;100025.50;4901178;29;20601;-84
2022/05/01 04:13:16;;;;;;;0.70;0.70;;;;;;;2.37;53.38;100026.84;4897461;29;20044;-82
2022/05/01 04:15:43;;;;;;;0.60;0.60;;;;;;;2.44;54.07;100028.84;4909034;29;20059;-83
2022/05/01 04:18:12;;;;;;;1.00;1.00;;;;;;;2.47;54.29;100031.19;4911860;29;20129;-83
2022/05/01 04:20:39;;;;;;;0.82;0.82;;;;;;;2.57;53.09;100032.66;4892736;29;20056;-80
2022/05/01 04:23:07;;;;;;;0.80;0.80;;;;;;;2.66;53.16;100028.19;4887938;29;20538;-81
2022/05/01 04:25:35;;;;;;;0.60;0.60;;;;;;;2.73;52.69;100028.31;4907140;29;20052;-81
2022/05/01 04:28:08;;;;;;;0.80;0.80;;;;;;;2.88;52.96;100028.47;4916430;29;20100;-82
2022/05/01 04:30:36;;;;;;;0.75;0.75;;;;;;;2.96;52.67;100023.97;4908182;29;20052;-82
2022/05/01 04:33:10;;;;;;;0.60;0.60;;;;;;;3.06;52.05;100029.09;4902864;29;20076;-83
2022/05/01 04:35:40;;;;;;;0.77;0.77;;;;;;;3.19;51.66;100033.88;4922509;29;20032;-81
2022/05/01 04:38:12;;;;;;;0.70;0.70;;;;;;;3.35;50.98;100027.69;4929198;29;20056;-81
2022/05/01 04:40:42;;;;;;;0.70;0.70;;;;;;;3.46;51.26;100033.44;4927347;29;20051;-81
2022/05/01 04:43:12;;;;;;;0.80;0.80;;;;;;;3.56;50.56;100037.75;4925559;29;20084;-80
2022/05/01 04:45:42;;;;;;;0.70;0.70;;;;;;;3.69;50.09;100033.50;4904053;29;20052;-80
2022/05/01 04:48:11;;;;;;;0.68;0.68;;;;;;;3.80;49.78;100029.63;4910664;29;20052;-80
2022/05/01 04:50:38;;;;;;;0.80;0.80;;;;;;;3.94;49.82;100025.38;4902332;29;20139;-80
2022/05/01 04:53:09;;;;;;;0.63;0.63;;;;;;;4.10;49.14;100029.75;4914390;29;20056;-83
2022/05/01 04:55:38;;;;;;;0.70;0.70;;;;;;;4.21;49.02;100021.34;4909140;29;20516;-85
2022/05/01 04:58:05;;;;;;;0.77;0.77;;;;;;;4.26;48.70;100018.97;4903381;29;20052;-86
2022/05/01 05:00:33;;;;;;;0.70;0.70;;;;;;;4.37;48.27;100016.88;4881196;29;20144;-86
2022/05/01 05:03:00;;;;;;;0.75;0.75;;;;;;;4.52;48.43;100020.44;4902470;29;20044;-82
2022/05/01 05:05:28;;;;;;;0.80;0.80;;;;;;;4.68;48.25;100024.81;4913441;29;20534;-82
2022/05/01 05:07:56;;;;;;;0.60;0.60;;;;;;;4.83;47.35;100022.16;4914182;29;20072;-82
2022/05/01 05:10:23;;;;;;;0.80;0.80;;;;;;;4.99;47.38;100022.84;4914875;29;20115;-83
2022/05/01 05:12:50;;;;;;;0.70;0.70;;;;;;;5.10;45.38;100024.22;4916150;29;20055;-83
2022/05/01 05:15:20;;;;;;;0.70;0.70;;;;;;;5.15;44.93;100024.50;4905154;29;20587;-81
2022/05/01 05:17:48;;;;;;;0.80;0.80;;;;;;;5.24;44.01;100022.56;4907320;29;20137;-81
2022/05/01 05:20:15;;;;;;;0.70;0.70;;;;;;;5.37;44.05;100017.38;4906362;29;20506;-82
2022/05/01 05:22:42;;;;;;;0.70;0.70;;;;;;;5.47;42.43;100016.25;4888736;29;20056;-85
2022/05/01 05:25:12;;;;;;;0.80;0.80;;;;;;;5.51;42.00;100018.38;4890004;29;20056;-82
2022/05/01 05:27:39;;;;;;;0.80;0.80;;;;;;;5.65;41.91;100022.88;4894791;29;20119;-83
2022/05/01 05:30:08;;;;;;;0.63;0.63;;;;;;;5.80;42.61;100019.34;4906167;29;20111;-83
2022/05/01 05:32:36;;;;;;;0.70;0.70;;;;;;;5.86;41.79;100015.91;4902868;29;20079;-82
2022/05/01 05:35:04;;;;;;;0.73;0.73;;;;;;;5.98;41.93;100013.59;4921772;29;20141;-84
2022/05/01 05:37:31;;;;;;;0.60;0.60;;;;;;;6.15;42.03;100011.50;4899119;29;20044;-82
2022/05/01 05:39:59;;;;;;;0.77;0.77;;;;;;;6.32;42.21;100006.72;4881285;29;20116;-86
2022/05/01 05:42:29;;;;;;;0.70;0.70;;;;;;;6.39;40.97;100012.97;4882035;29;20057;-82
2022/05/01 05:44:56;;;;;;;0.70;0.70;;;;;;;6.45;40.33;100010.31;4888665;29;20073;-83
2022/05/01 05:47:23;;;;;;;0.63;0.63;;;;;;;6.52;40.17;100010.41;4897380;29;20052;-85
2022/05/01 05:49:50;;;;;;;0.70;0.70;;;;;;;6.68;40.58;100004.78;4891156;29;20116;-84
2022/05/01 05:52:21;;;;;;;0.60;0.60;;;;;;;6.72;40.88;100010.56;4879420;29;20101;-85
2022/05/01 05:54:49;;;;;;;0.60;0.60;;;;;;;6.81;39.33;100000.50;4884942;29;20173;-84
2022/05/01 05:57:16;;;;;;;0.60;0.60;;;;;;;6.92;39.79;100003.47;4882725;29;20053;-83
2022/05/01 05:59:43;;;;;;;0.70;0.70;;;;;;;7.12;39.89;100000.91;4891890;29;20135;-83
2022/05/01 06:02:11;;;;;;;0.70;0.70;;;;;;;7.25;38.50;100002.03;4897943;29;20060;-83
2022/05/01 06:04:41;;;;;;;0.70;0.70;;;;;;;7.27;37.92;100000.81;4880612;29;20086;-82
2022/05/01 06:07:08;;;;;;;0.70;0.70;;;;;;;7.35;37.48;100008.69;4885572;29;20084;-82
2022/05/01 06:09:36;;;;;;;0.70;0.70;;;;;;;7.34;37.07;100011.56;4890373;29;20065;-82
2022/05/01 06:12:03;;;;;;;0.70;0.70;;;;;;;7.25;37.11;100004.72;4897895;29;20136;-82
2022/05/01 06:14:30;;;;;;;0.65;0.65;;;;;;;7.28;37.28;100002.44;4888412;29;20049;-82
2022/05/01 06:16:57;;;;;;;0.70;0.70;;;;;;;7.42;37.24;99987.25;4898517;29;20079;-83
2022/05/01 06:19:25;;;;;;;0.70;0.70;;;;;;;7.59;36.79;99991.22;4908217;29;20087;-82
2022/05/01 06:21:52;;;;;;;0.70;0.70;;;;;;;7.70;36.81;99986.31;4895646;29;20055;-83
2022/05/01 06:24:19;;;;;;;0.70;0.70;;;;;;;7.78;36.38;99992.31;4893110;29;20057;-84
2022/05/01 06:26:46;;;;;;;0.70;0.70;;;;;;;7.87;36.51;99992.13;4898578;29;20049;-84
2022/05/01 06:29:13;;;;;;;0.70;0.70;;;;;;;7.94;36.37;99985.75;4898046;29;20064;-84
2022/05/01 06:31:41;;;;;;;0.60;0.60;;;;;;;7.94;36.10;99985.75;4897766;29;20082;-84
2022/05/01 06:34:11;;;;;;;0.60;0.60;;;;;;;7.99;35.81;99982.44;4896723;29;20067;-84
2022/05/01 06:36:38;;;;;;;0.70;0.70;;;;;;;8.12;35.76;99995.91;4896988;29;20049;-83
2022/05/01 06:39:07;;;;;;;0.60;0.60;;;;;;;8.10;35.69;99986.41;4898290;29;20075;-82
2022/05/01 06:41:34;;;;;;;0.60;0.60;;;;;;;8.17;35.76;99982.69;4898009;29;20080;-83
2022/05/01 06:44:01;;;;;;;0.60;0.60;;;;;;;8.32;35.30;99987.06;4885691;29;20096;-81
2022/05/01 06:46:28;;;;;;;0.70;0.70;;;;;;;8.29;35.14;99984.78;4911177;29;20052;-82
2022/05/01 06:48:55;;;;;;;0.70;0.70;;;;;;;8.28;35.12;99975.03;4914360;29;20143;-82
2022/05/01 06:51:22;;;;;;;0.70;0.70;;;;;;;8.24;34.58;99967.38;4914237;29;20253;-82
2022/05/01 06:53:50;;;;;;;0.60;0.60;;;;;;;8.29;34.92;99965.97;4887643;29;20069;-85
2022/05/01 06:56:18;;;;;;;0.60;0.60;;;;;;;8.41;34.87;99977.78;4867219;29;20057;-83
2022/05/01 06:58:45;;;;;;;0.70;0.70;;;;;;;8.46;34.48;99972.63;4898409;29;20071;-80
2022/05/01 07:01:12;;;;;;;0.68;0.68;;;;;;;8.51;34.91;99959.38;4869124;29;20052;-81
2022/05/01 07:03:41;;;;;;;0.60;0.60;;;;;;;8.63;34.73;99962.25;4916504;29;20147;-82
2022/05/01 07:06:08;;;;;;;0.70;0.70;;;;;;;8.63;33.88;99963.09;4917213;29;20051;-83
2022/05/01 07:08:35;;;;;;;0.70;0.70;;;;;;;8.76;34.15;99953.31;4908988;29;20416;-81
2022/05/01 07:11:02;;;;;;;0.70;0.70;;;;;;;8.71;33.49;99961.19;4915934;29;20071;-81
2022/05/01 07:13:29;;;;;;;0.60;0.60;;;;;;;8.54;33.42;99963.50;4917277;29;20143;-84
2022/05/01 07:15:57;;;;;;;0.70;0.70;;;;;;;8.63;33.69;99971.16;4916043;29;20135;-82
2022/05/01 07:18:24;;;;;;;0.60;0.60;;;;;;;8.49;33.56;99968.69;4891967;29;20155;-83
2022/05/01 07:20:51;;;;;;;0.60;0.60;;;;;;;8.42;33.58;99956.03;4907067;29;20142;-85
2022/05/01 07:23:23;;;;;;;0.50;0.50;;;;;;;8.54;34.21;99963.50;4914825;29;20059;-81
2022/05/01 07:25:50;;;;;;;0.70;0.70;;;;;;;8.45;34.01;99958.31;4912168;29;20587;-82
2022/05/01 07:28:17;;;;;;;0.70;0.70;;;;;;;9.06;33.76;99959.91;4897251;29;20599;-81
2022/05/01 07:30:44;;;;;;;0.60;0.60;;;;;;;9.08;32.63;99949.72;4888565;29;20059;-81
2022/05/01 07:33:11;;;;;;;0.60;0.60;;;;;;;8.54;32.90;99956.25;4915767;29;20638;-80
2022/05/01 07:35:39;;;;;;;0.60;0.60;;;;;;;8.29;33.48;99955.19;4913187;29;20044;-81
2022/05/01 07:38:06;;;;;;;0.80;0.80;;;;;;;8.60;33.27;99950.03;4897082;29;20112;-82
2022/05/01 07:40:33;;;;;;;0.80;0.80;;;;;;;9.17;32.63;99960.28;4904768;29;20065;-81
2022/05/01 07:43:00;;;;;;;0.90;0.90;;;;;;;9.54;31.96;99943.38;4559729;29;9999958;-85
2022/05/01 07:45:27;;;;;;;0.80;0.80;;;;;;;9.56;31.71;99940.44;4902504;29;20091;-82
2022/05/01 07:47:58;;;;;;;0.90;0.90;;;;;;;9.89;31.55;99952.91;4905002;29;20056;-84
2022/05/01 07:50:25;;;;;;;0.90;0.90;;;;;;;9.96;31.47;99934.81;4902830;29;20083;-79
2022/05/01 07:52:53;;;;;;;0.55;0.55;;;;;;;9.88;31.63;99943.19;4906578;29;20692;-80
2022/05/01 07:55:20;;;;;;;0.60;0.60;;;;;;;9.42;32.52;99928.91;4902067;29;20080;-80
2022/05/01 07:57:48;;;;;;;0.60;0.60;;;;;;;9.13;32.50;99929.44;4903740;29;20143;-79
2022/05/01 08:00:16;;;;;;;0.60;0.60;;;;;;;9.26;32.33;99937.44;4898832;29;20671;-79
2022/05/01 08:05:30;;;;;;;0.80;0.80;;;;;;;10.28;30.88;99921.31;4889952;29;20599;-80
2022/05/01 08:07:57;;;;;;;0.90;0.90;;;;;;;10.87;29.88;99929.94;4911811;29;20099;-81
2022/05/01 08:10:25;;;;;;;0.90;0.90;;;;;;;11.23;29.53;99913.72;4906368;29;20426;-81
2022/05/01 08:12:52;;;;;;;0.90;0.90;;;;;;;11.10;29.91;99913.06;4893824;29;20052;-82
2022/05/01 08:15:19;;;;;;;0.90;0.90;;;;;;;11.31;29.00;99919.84;4912749;29;20068;-83
2022/05/01 08:17:47;;;;;;;0.90;0.90;;;;;;;11.39;28.63;99908.72;4914537;29;20052;-81
2022/05/01 08:23:06;;;;;;;0.90;0.90;;;;;;;11.71;28.43;99899.34;4897806;29;20064;-81
2022/05/01 08:25:34;;;;;;;0.90;0.90;;;;;;;12.06;27.95;99889.72;4905126;29;20501;-80
2022/05/01 08:28:01;;;;;;;1.00;1.00;;;;;;;12.24;28.01;99905.03;4905615;29;20055;-79
2022/05/01 08:30:28;;;;;;;0.60;0.60;;;;;;;12.66;27.21;99880.53;4915731;29;20048;-82
2022/05/01 08:32:55;;;;;;;0.60;0.60;;;;;;;12.28;27.25;99895.38;4913526;29;20052;-80
2022/05/01 08:35:22;;;;;;;0.50;0.50;;;;;;;11.95;27.70;99887.78;4909733;29;20417;-82
2022/05/01 08:37:49;;;;;;;0.50;0.50;;;;;;;10.94;29.06;99882.03;4910185;29;20086;-81
2022/05/01 08:40:17;;;;;;;0.60;0.60;;;;;;;10.60;29.83;99881.59;4914046;29;20048;-81
2022/05/01 08:42:44;;;;;;;0.90;0.90;;;;;;;11.43;28.29;99880.22;4915461;29;20060;-81
2022/05/01 08:45:13;;;;;;;0.90;0.90;;;;;;;12.18;27.54;99870.78;4915084;29;20048;-82
2022/05/01 08:47:45;;;;;;;0.90;0.90;;;;;;;13.30;26.69;99877.88;4915538;29;20062;-81
2022/05/01 08:50:12;;;;;;;0.90;0.90;;;;;;;13.85;25.97;99864.53;4898842;29;20425;-81
2022/05/01 08:52:40;;;;;;;0.90;0.90;;;;;;;14.37;25.13;99862.63;4899052;29;20072;-81
2022/05/01 08:55:08;;;;;;;0.90;0.90;;;;;;;14.34;24.79;99865.84;4915724;29;20123;-81
2022/05/01 08:57:37;;;;;;;1.00;1.00;;;;;;;14.66;24.57;99856.03;4898864;29;20056;-82
2022/05/01 09:00:07;;;;;;;0.90;0.90;;;;;;;14.60;24.56;99854.31;4915266;29;20083;-80
2022/05/01 09:02:34;;;;;;;0.90;0.90;;;;;;;15.21;24.02;99853.44;4914899;29;20507;-81
2022/05/01 09:05:02;;;;;;;0.70;0.70;;;;;;;14.92;23.81;99854.47;4913662;29;20511;-81
2022/05/01 09:07:29;;;;;;;1.00;1.00;;;;;;;14.80;24.01;99844.78;4914885;29;20044;-81
2022/05/01 09:09:57;;;;;;;0.85;0.85;;;;;;;14.58;24.57;99839.31;4900177;29;20051;-81
2022/05/01 09:15:12;;;;;;;0.50;0.50;;;;;;;12.15;26.91;99839.59;4904327;29;20058;-80
2022/05/01 09:17:39;;;;;;;0.90;0.90;;;;;;;13.43;25.45;99845.88;4918862;29;20111;-81
2022/05/01 09:20:09;;;;;;;0.60;0.60;;;;;;;13.03;25.60;99832.31;4918895;29;20048;-81
2022/05/01 09:22:51;;;;;;;1.00;1.00;;;;;;;13.11;25.93;99825.69;4918623;29;20557;-81
2022/05/01 09:25:22;;;;;;;0.65;0.65;;;;;;;14.58;24.70;99814.88;4918878;29;20236;-81
2022/05/01 09:27:56;;;;;;;1.00;1.00;;;;;;;15.89;23.52;99819.34;4886607;29;20138;-81
2022/05/01 09:30:31;;;;;;;0.90;0.90;;;;;;;15.85;22.08;99825.56;4918003;29;20044;-81
2022/05/01 09:33:00;;;;;;;0.90;0.90;;;;;;;15.65;22.92;99821.56;4920169;29;20079;-81
2022/05/01 09:35:35;;;;;;;0.50;0.50;;;;;;;14.51;23.73;99824.03;4919485;29;20112;-82
2022/05/01 09:38:10;;;;;;;0.90;0.90;;;;;;;14.23;25.05;99805.13;4919859;29;20490;-80
2022/05/01 09:40:37;;;;;;;0.60;0.60;;;;;;;15.91;23.07;99813.66;4918920;29;20084;-81
2022/05/01 09:43:04;;;;;;;1.00;1.00;;;;;;;16.55;21.53;99809.97;4901546;29;20060;-81
2022/05/01 09:45:32;;;;;;;1.00;1.00;;;;;;;16.64;21.69;99816.56;4918879;29;20467;-81
2022/05/01 09:48:19;;;;;;;0.50;0.50;;;;;;;15.16;23.04;99806.09;4918567;29;20063;-80
2022/05/01 09:50:47;;;;;;;0.50;0.50;;;;;;;14.18;24.10;99803.19;4918656;29;20044;-81
2022/05/01 09:53:17;;;;;;;0.70;0.70;;;;;;;13.66;24.83;99801.53;4918070;29;20464;-81
2022/05/01 09:55:59;;;;;;;0.50;0.50;;;;;;;13.95;24.50;99814.19;4918061;29;20076;-80
2022/05/01 09:58:30;;;;;;;0.40;0.40;;;;;;;13.33;25.12;99804.19;4917740;29;20060;-81
2022/05/01 10:00:57;;;;;;;0.50;0.50;;;;;;;12.77;26.02;99795.75;4918215;29;20416;-81
2022/05/01 10:03:29;;;;;;;1.05;1.05;;;;;;;13.50;25.18;99801.53;4918268;29;20062;-80
2022/05/01 10:05:58;;;;;;;1.00;1.00;;;;;;;14.79;24.13;99796.97;4917639;29;20087;-80
2022/05/01 10:08:26;;;;;;;0.40;0.40;;;;;;;15.77;22.43;99791.47;4917775;29;20044;-80
2022/05/01 10:10:58;;;;;;;0.40;0.40;;;;;;;14.42;23.65;99786.66;4917785;29;20054;-81
2022/05/01 10:13:27;;;;;;;0.50;0.50;;;;;;;13.19;24.97;99792.78;4917518;29;20677;-80
2022/05/01 10:16:06;;;;;;;0.70;0.70;;;;;;;12.65;25.38;99789.53;4917804;29;20153;-81
2022/05/01 10:18:35;;;;;;;0.60;0.60;;;;;;;13.94;24.53;99790.84;4900818;29;20122;-81
2022/05/01 10:21:03;;;;;;;1.08;1.08;;;;;;;15.63;23.48;99779.38;4899926;29;20051;-80
2022/05/01 10:23:30;;;;;;;1.00;1.00;;;;;;;16.19;21.79;99777.09;4916984;29;20538;-81
2022/05/01 10:26:02;;;;;;;1.00;1.00;;;;;;;15.96;22.21;99781.00;4917367;29;20095;-81
2022/05/01 10:29:26;;;;;;;1.00;1.00;;;;;;;15.63;22.35;99780.19;4918261;29;20456;-82
2022/05/01 10:32:21;;;;;;;1.00;1.00;;;;;;;16.21;22.17;99773.03;4900588;29;20052;-80
2022/05/01 10:35:10;;;;;;;0.90;0.90;;;;;;;14.90;23.46;99777.81;4921276;29;20103;-81
2022/05/01 10:38:03;;;;;;;0.40;0.40;;;;;;;14.34;24.14;99777.06;4939012;29;20052;-81
2022/05/01 10:40:58;;;;;;;0.57;0.57;;;;;;;13.19;24.37;99763.81;4941791;29;20103;-81
2022/05/01 10:43:36;;;;;;;1.00;1.00;;;;;;;14.13;24.20;99781.38;4926489;29;20087;-81
2022/05/01 10:46:27;;;;;;;1.00;1.00;;;;;;;15.91;22.23;99765.47;4905886;29;20064;-79
2022/05/01 10:48:58;;;;;;;1.00;1.00;;;;;;;16.83;21.15;99740.63;4920699;29;20060;-80
2022/05/01 10:51:29;;;;;;;0.60;0.60;;;;;;;17.29;20.46;99752.47;4919191;29;20047;-81
2022/05/01 10:54:09;;;;;;;0.75;0.75;;;;;;;17.13;20.86;99753.53;4918054;29;20052;-81
2022/05/01 10:56:43;;;;;;;1.00;1.00;;;;;;;15.85;21.27;99744.75;4885408;29;20056;-81
2022/05/01 10:59:30;;;;;;;0.88;0.88;;;;;;;14.88;22.62;99744.63;4917463;29;20087;-81
2022/05/01 11:01:59;;;;;;;1.10;1.10;;;;;;;16.62;20.13;99731.53;4917078;29;20052;-81
2022/05/01 11:04:40;;;;;;;0.60;0.60;;;;;;;16.13;20.53;99723.66;4916786;29;20048;-81
2022/05/01 11:07:13;;;;;;;0.90;0.90;;;;;;;17.02;20.50;99727.34;4917022;29;20052;-81
2022/05/01 11:09:42;;;;;;;1.00;1.00;;;;;;;17.51;19.92;99726.84;4916733;29;20052;-82
2022/05/01 11:12:10;;;;;;;0.50;0.50;;;;;;;16.45;20.77;99729.00;4900523;29;20071;-81
2022/05/01 11:15:02;;;;;;;0.40;0.40;;;;;;;14.54;22.93;99721.41;4901066;29;20062;-83
2022/05/01 11:17:36;;;;;;;0.80;0.80;;;;;;;14.59;22.97;99729.63;4917066;29;20051;-81
2022/05/01 11:20:29;;;;;;;0.43;0.43;;;;;;;14.29;22.89;99726.22;4916725;29;20056;-81
2022/05/01 11:22:57;;;;;;;0.50;0.50;;;;;;;13.55;23.74;99729.22;4916593;29;20298;-80
2022/05/01 11:25:39;;;;;;;0.50;0.50;;;;;;;14.69;23.08;99716.97;4917559;29;20427;-81
2022/05/01 11:28:06;;;;;;;0.98;0.98;;;;;;;14.78;23.31;99720.03;4917148;29;20365;-81
2022/05/01 11:30:35;;;;;;;0.40;0.40;;;;;;;14.58;22.79;99726.06;4916203;29;20491;-82
2022/05/01 11:33:10;;;;;;;0.40;0.40;;;;;;;13.75;23.70;99717.03;4916296;29;20053;-81
2022/05/01 11:35:56;;;;;;;0.68;0.68;;;;;;;13.76;23.56;99707.81;4916194;29;20139;-81
2022/05/01 11:38:39;;;;;;;0.50;0.50;;;;;;;13.82;23.70;99709.53;4916033;29;20417;-81
2022/05/01 11:41:07;;;;;;;0.50;0.50;;;;;;;13.33;23.85;99710.13;4916683;29;20510;-80
2022/05/01 11:43:35;;;;;;;0.50;0.50;;;;;;;13.73;23.10;99703.72;4915778;29;20485;-81
2022/05/01 11:46:03;;;;;;;0.50;0.50;;;;;;;14.15;23.32;99705.13;4916144;29;20092;-80
2022/05/01 11:48:34;;;;;;;0.50;0.50;;;;;;;13.90;23.79;99697.44;4916078;29;20164;-81
2022/05/01 11:51:01;;;;;;;0.50;0.50;;;;;;;13.75;24.05;99688.03;4915739;29;20052;-81
2022/05/01 11:53:29;;;;;;;0.50;0.50;;;;;;;15.29;22.61;99681.69;4915600;29;20075;-81
2022/05/01 12:04:24;;;;;;;0.50;0.50;;;;;;;12.98;23.86;99675.06;4915383;29;20047;-82
2022/05/01 12:06:58;;;;;;;;;;;;;;;12.51;24.12;99675.28;4915947;29;20071;-81
2022/05/01 12:09:26;;;;;;;0.50;0.50;;;;;;;12.34;24.64;99672.50;4915417;29;19931;-80
2022/05/01 12:11:54;;;;;;;0.50;0.50;;;;;;;12.68;24.46;99673.44;4915487;29;20075;-81